createdAt,value
2022-11-07T00:00:37.293Z,114.35
2022-11-07T00:03:04.276Z,116.05
2022-11-07T00:05:30.817Z,122.45
2022-11-07T00:07:57.313Z,117.85
2022-11-07T00:10:23.927Z,121.07
2022-11-07T00:12:50.427Z,120.75
2022-11-07T00:15:17.066Z,118.68
2022-11-07T00:17:43.536Z,119.53
2022-11-07T00:20:10.492Z,123.38
2022-11-07T00:22:36.998Z,124.45
2022-11-07T00:25:03.569Z,125.45
2022-11-07T00:27:30.120Z,121.90
2022-11-07T00:29:56.653Z,123.90
2022-11-07T00:32:23.201Z,126.90
2022-11-07T00:34:49.745Z,123.13
2022-11-07T00:37:16.249Z,127.10
2022-11-07T00:39:42.737Z,125.85
2022-11-07T00:42:09.220Z,125.20
2022-11-07T00:44:35.728Z,124.60
2022-11-07T00:47:02.237Z,122.65
2022-11-07T00:49:28.725Z,124.88
2022-11-07T00:51:55.212Z,125.53
2022-11-07T00:54:21.764Z,125.25
2022-11-07T00:56:48.266Z,125.57
2022-11-07T00:59:14.793Z,128.02
2022-11-07T01:01:41.406Z,126.53
2022-11-07T01:04:30.985Z,126.50
2022-11-07T01:06:57.495Z,121.80
2022-11-07T01:09:24.050Z,122.78
2022-11-07T01:11:50.623Z,125.32
2022-11-07T01:14:19.696Z,125.53
2022-11-07T01:16:46.542Z,127.68
2022-11-07T01:19:13.122Z,128.75
2022-11-07T01:21:41.403Z,129.48
2022-11-07T01:24:10.409Z,127.72
2022-11-07T01:26:38.414Z,127.88
2022-11-07T01:29:05.659Z,131.63
2022-11-07T01:31:32.303Z,129.38
2022-11-07T01:33:59.862Z,132.70
2022-11-07T01:36:27.031Z,128.38
2022-11-07T01:38:53.993Z,139.77
2022-11-07T01:41:27.077Z,130.63
2022-11-07T01:44:02.774Z,133.13
2022-11-07T01:46:36.505Z,126.68
2022-11-07T01:49:17.485Z,198.17
2022-11-07T01:51:51.642Z,127.78
2022-11-07T01:54:22.014Z,129.80
2022-11-07T01:56:49.483Z,131.10
2022-11-07T01:59:21.866Z,123.72
2022-11-07T02:01:48.629Z,124.18
2022-11-07T02:04:17.418Z,142.15
2022-11-07T02:06:48.135Z,131.07
2022-11-07T02:09:15.004Z,134.98
2022-11-07T02:11:41.946Z,128.38
2022-11-07T02:14:13.203Z,141.68
2022-11-07T02:16:39.771Z,142.13
2022-11-07T02:19:10.771Z,136.23
2022-11-07T02:22:03.309Z,134.75
2022-11-07T02:24:33.127Z,133.73
2022-11-07T02:27:07.075Z,133.68
2022-11-07T02:29:35.773Z,146.10
2022-11-07T02:32:08.810Z,138.88
2022-11-07T02:34:36.363Z,140.43
2022-11-07T02:37:12.004Z,138.98
2022-11-07T02:39:38.500Z,137.80
2022-11-07T02:42:06.437Z,144.95
2022-11-07T02:44:33.987Z,149.60
2022-11-07T02:47:00.602Z,150.85
2022-11-07T02:49:27.079Z,151.85
2022-11-07T02:51:53.713Z,154.77
2022-11-07T02:54:20.184Z,150.73
2022-11-07T02:56:46.683Z,155.65
2022-11-07T02:59:13.180Z,162.60
2022-11-07T03:01:39.767Z,156.02
2022-11-07T03:04:06.374Z,155.55
2022-11-07T03:06:33.090Z,156.82
2022-11-07T03:08:59.582Z,158.98
2022-11-07T03:11:26.094Z,154.85
2022-11-07T03:13:54.424Z,160.73
2022-11-07T03:16:20.996Z,170.07
2022-11-07T03:18:47.591Z,160.68
2022-11-07T03:21:14.330Z,165.38
2022-11-07T03:23:40.843Z,159.30
2022-11-07T03:26:07.419Z,172.30
2022-11-07T03:28:34.202Z,169.80
2022-11-07T03:31:02.858Z,178.90
2022-11-07T03:33:30.244Z,169.52
2022-11-07T03:35:56.868Z,163.70
2022-11-07T03:38:23.442Z,170.10
2022-11-07T03:40:49.943Z,163.05
2022-11-07T03:43:17.056Z,167.80
2022-11-07T03:45:43.830Z,175.25
2022-11-07T03:48:10.369Z,184.60
2022-11-07T03:50:36.906Z,189.90
2022-11-07T03:53:03.478Z,191.80
2022-11-07T03:55:30.006Z,187.48
2022-11-07T03:57:56.516Z,176.35
2022-11-07T04:00:23.653Z,173.45
2022-11-07T04:02:50.268Z,174.05
2022-11-07T04:05:17.011Z,175.23
2022-11-07T04:07:43.565Z,174.18
2022-11-07T04:10:10.386Z,176.15
2022-11-07T04:13:06.285Z,171.35
2022-11-07T04:15:51.068Z,166.90
2022-11-07T04:18:17.571Z,167.52
2022-11-07T04:20:44.050Z,176.70
2022-11-07T04:23:10.611Z,192.63
2022-11-07T04:25:55.720Z,186.48
2022-11-07T04:28:22.205Z,189.45
2022-11-07T04:30:48.725Z,206.32
2022-11-07T04:33:15.609Z,195.43
2022-11-07T04:35:42.373Z,195.63
2022-11-07T04:38:08.938Z,205.25
2022-11-07T04:40:35.528Z,204.68
2022-11-07T04:43:08.872Z,199.80
2022-11-07T04:45:40.144Z,198.88
2022-11-07T04:48:08.594Z,204.95
2022-11-07T04:50:35.078Z,195.85
2022-11-07T04:53:01.588Z,193.27
2022-11-07T04:55:30.746Z,185.48
2022-11-07T04:57:57.779Z,177.57
2022-11-07T05:00:24.926Z,165.07
2022-11-07T05:02:51.464Z,168.98
2022-11-07T05:05:18.654Z,160.57
2022-11-07T05:07:45.171Z,162.70
2022-11-07T05:10:27.652Z,156.93
2022-11-07T05:12:55.091Z,155.70
2022-11-07T05:15:22.108Z,159.27
2022-11-07T05:17:49.130Z,164.82
2022-11-07T05:20:36.853Z,159.93
2022-11-07T05:23:15.338Z,167.95
2022-11-07T05:25:44.674Z,165.15
2022-11-07T05:28:13.000Z,168.23
2022-11-07T05:30:41.976Z,169.38
2022-11-07T05:33:10.219Z,175.75
2022-11-07T05:35:37.127Z,174.27
2022-11-07T05:38:04.374Z,189.20
2022-11-07T05:40:31.340Z,186.68
2022-11-07T05:43:02.720Z,198.80
2022-11-07T05:45:30.350Z,209.20
2022-11-07T05:47:58.910Z,228.18
2022-11-07T05:50:25.693Z,229.02
2022-11-07T05:52:52.483Z,222.43
2022-11-07T05:55:19.462Z,237.75
2022-11-07T05:57:46.190Z,254.18
2022-11-07T06:00:13.410Z,249.82
2022-11-07T06:02:40.361Z,257.55
2022-11-07T06:05:07.519Z,248.02
2022-11-07T06:07:40.713Z,258.42
2022-11-07T06:10:08.743Z,261.02
2022-11-07T06:12:35.281Z,266.15
2022-11-07T06:15:01.782Z,270.95
2022-11-07T06:17:28.308Z,280.50
2022-11-07T06:19:54.786Z,274.17
2022-11-07T06:22:21.264Z,275.80
2022-11-07T06:24:47.741Z,282.80
2022-11-07T06:27:14.312Z,285.73
2022-11-07T06:29:40.873Z,299.30
2022-11-07T06:32:07.442Z,319.40
2022-11-07T06:34:34.001Z,328.27
2022-11-07T06:37:03.356Z,325.27
2022-11-07T06:39:30.164Z,326.45
2022-11-07T06:41:56.651Z,344.52
2022-11-07T06:44:23.165Z,320.05
2022-11-07T06:46:49.696Z,332.98
2022-11-07T06:49:16.435Z,340.25
2022-11-07T06:51:47.798Z,364.55
2022-11-07T06:54:14.745Z,348.92
2022-11-07T06:56:41.221Z,359.70
2022-11-07T06:59:07.801Z,371.60
2022-11-07T07:01:34.351Z,374.95
2022-11-07T07:04:01.034Z,372.75
2022-11-07T07:06:27.773Z,378.55
2022-11-07T07:08:54.776Z,401.33
2022-11-07T07:11:21.280Z,381.92
2022-11-07T07:13:47.800Z,387.90
2022-11-07T07:16:14.362Z,387.95
2022-11-07T07:18:40.896Z,404.45
2022-11-07T07:21:10.274Z,406.88
2022-11-07T07:23:38.617Z,404.92
2022-11-07T07:26:07.837Z,408.00
2022-11-07T07:28:34.416Z,384.58
2022-11-07T07:31:13.065Z,399.40
2022-11-07T07:33:40.079Z,412.10
2022-11-07T07:36:07.282Z,400.70
2022-11-07T07:38:34.054Z,425.90
2022-11-07T07:41:01.201Z,459.05
2022-11-07T07:43:28.662Z,425.00
2022-11-07T07:46:03.198Z,429.90
2022-11-07T07:50:56.713Z,425.45
2022-11-07T07:53:23.536Z,415.90
2022-11-07T07:55:50.389Z,434.45
2022-11-07T07:58:17.036Z,420.83
2022-11-07T08:00:43.592Z,408.95
2022-11-07T08:03:12.298Z,351.45
2022-11-07T08:05:39.730Z,321.75
2022-11-07T08:08:09.499Z,286.80
2022-11-07T08:10:42.035Z,208.95
2022-11-07T08:13:09.478Z,190.70
2022-11-07T08:15:36.052Z,197.13
2022-11-07T08:18:04.072Z,161.85
2022-11-07T08:20:30.659Z,130.80
2022-11-07T08:23:09.890Z,114.50
2022-11-07T08:25:43.289Z,101.78
2022-11-07T08:28:09.764Z,104.07
2022-11-07T08:30:36.303Z,107.93
2022-11-07T08:33:03.477Z,107.03
2022-11-07T08:35:31.101Z,63.53
2022-11-07T08:37:58.438Z,58.80
2022-11-07T08:40:25.643Z,65.05
2022-11-07T08:42:52.472Z,58.95
2022-11-07T08:45:19.198Z,43.08
2022-11-07T08:47:45.698Z,42.67
2022-11-07T08:50:12.381Z,45.83
2022-11-07T08:52:38.905Z,38.65
2022-11-07T08:55:05.831Z,39.45
2022-11-07T08:57:32.344Z,41.20
2022-11-07T08:59:58.841Z,41.88
2022-11-07T09:03:04.386Z,40.42
2022-11-07T09:05:11.872Z,45.47
2022-11-07T09:07:39.436Z,43.95
2022-11-07T09:10:06.558Z,46.72
2022-11-07T09:12:33.090Z,55.78
2022-11-07T09:14:59.659Z,53.15
2022-11-07T09:17:26.213Z,47.08
2022-11-07T09:19:52.686Z,49.13
2022-11-07T09:22:19.291Z,58.08
2022-11-07T09:24:45.834Z,55.63
2022-11-07T09:27:12.397Z,56.63
2022-11-07T09:29:38.973Z,56.40
2022-11-07T09:32:23.668Z,62.42
2022-11-07T09:34:58.236Z,67.82
2022-11-07T09:37:28.225Z,68.95
2022-11-07T09:39:54.722Z,67.22
2022-11-07T09:42:43.998Z,69.55
2022-11-07T09:45:14.054Z,66.88
2022-11-07T09:47:48.041Z,62.38
2022-11-07T09:50:29.584Z,64.00
2022-11-07T09:53:01.909Z,58.33
2022-11-07T09:55:37.014Z,63.80
2022-11-07T09:58:10.086Z,71.47
2022-11-07T10:00:36.721Z,66.97
2022-11-07T10:03:03.463Z,66.85
2022-11-07T10:06:01.445Z,67.85
2022-11-07T10:08:59.709Z,68.35
2022-11-07T10:11:44.084Z,65.57
2022-11-07T10:14:48.913Z,68.85
2022-11-07T10:17:36.453Z,68.88
2022-11-07T10:20:12.632Z,66.60
2022-11-07T10:23:02.439Z,68.38
2022-11-07T10:25:42.191Z,65.00
2022-11-07T10:28:17.545Z,62.10
2022-11-07T10:30:50.529Z,68.05
2022-11-07T10:33:27.282Z,69.88
2022-11-07T10:36:02.307Z,67.93
2022-11-07T10:38:31.000Z,69.65
2022-11-07T10:40:57.564Z,73.35
2022-11-07T10:43:36.196Z,72.53
2022-11-07T10:46:06.718Z,70.53
2022-11-07T10:48:33.287Z,70.65
2022-11-07T10:50:59.810Z,70.55
2022-11-07T10:53:26.885Z,75.82
2022-11-07T10:55:55.105Z,60.00
2022-11-07T10:58:34.835Z,61.50
2022-11-07T11:01:07.140Z,59.72
2022-11-07T11:03:45.986Z,58.78
2022-11-07T11:06:18.686Z,56.95
2022-11-07T11:08:50.117Z,60.78
2022-11-07T11:11:34.227Z,62.50
2022-11-07T11:14:12.992Z,57.13
2022-11-07T11:16:42.095Z,60.10
2022-11-07T11:19:23.208Z,57.65
2022-11-07T11:21:51.818Z,57.88
2022-11-07T11:24:40.055Z,61.92
2022-11-07T11:27:21.806Z,59.97
2022-11-07T11:29:58.165Z,52.95
2022-11-07T11:32:31.811Z,49.10
2022-11-07T11:35:12.953Z,50.67
2022-11-07T11:37:43.467Z,48.67
2022-11-07T11:40:22.482Z,45.60
2022-11-07T11:43:00.612Z,44.85
2022-11-07T11:45:49.856Z,42.63
2022-11-07T11:48:46.763Z,42.20
2022-11-07T11:51:42.439Z,44.33
2022-11-07T11:54:11.275Z,40.80
2022-11-07T11:57:03.258Z,38.10
2022-11-07T11:59:43.955Z,37.45
2022-11-07T12:02:47.593Z,37.47
2022-11-07T12:05:27.247Z,36.13
2022-11-07T12:08:30.350Z,35.63
2022-11-07T12:11:05.724Z,34.22
2022-11-07T12:13:51.602Z,36.53
2022-11-07T12:16:43.489Z,37.90
2022-11-07T12:19:12.991Z,36.15
2022-11-07T12:21:59.161Z,39.05
2022-11-07T12:24:31.573Z,36.97
2022-11-07T12:27:35.699Z,35.20
2022-11-07T12:30:30.058Z,35.13
2022-11-07T12:33:25.770Z,37.50
2022-11-07T12:35:55.369Z,39.88
2022-11-07T12:38:42.647Z,38.88
2022-11-07T12:41:43.212Z,39.38
2022-11-07T12:44:44.135Z,36.97
2022-11-07T12:47:19.561Z,39.50
2022-11-07T12:50:08.211Z,42.78
2022-11-07T12:52:48.210Z,46.80
2022-11-07T12:55:18.638Z,39.35
2022-11-07T12:57:48.510Z,38.10
2022-11-07T13:00:27.696Z,38.83
2022-11-07T13:02:58.977Z,38.90
2022-11-07T13:05:44.115Z,62.38
2022-11-07T13:08:25.504Z,98.05
2022-11-07T13:11:03.557Z,112.80
2022-11-07T13:13:52.920Z,108.25
2022-11-07T13:16:37.696Z,127.53
2022-11-07T13:19:22.081Z,124.38
2022-11-07T13:22:05.564Z,110.80
2022-11-07T13:24:34.001Z,78.20
2022-11-07T13:27:01.764Z,61.67
2022-11-07T13:29:39.326Z,48.72
2022-11-07T13:32:11.770Z,44.28
2022-11-07T13:34:57.741Z,64.75
2022-11-07T13:37:37.670Z,67.68
2022-11-07T13:40:27.570Z,43.47
2022-11-07T13:43:16.114Z,34.38
2022-11-07T13:45:46.372Z,26.83
2022-11-07T13:48:24.037Z,24.65
2022-11-07T13:51:23.029Z,25.02
2022-11-07T13:54:08.377Z,24.55
2022-11-07T13:56:48.236Z,36.17
2022-11-07T13:59:55.024Z,31.88
2022-11-07T14:02:30.256Z,29.45
2022-11-07T14:05:16.295Z,22.42
2022-11-07T14:07:54.303Z,18.15
2022-11-07T14:10:28.352Z,21.63
2022-11-07T14:13:08.539Z,20.83
2022-11-07T14:15:43.123Z,23.73
2022-11-07T14:18:16.136Z,29.17
2022-11-07T14:20:55.467Z,28.38
2022-11-07T14:23:25.898Z,27.48
2022-11-07T14:25:58.434Z,21.20
2022-11-07T14:28:29.415Z,17.42
2022-11-07T14:30:55.909Z,15.05
2022-11-07T14:33:23.189Z,14.55
2022-11-07T14:35:51.299Z,13.50
2022-11-07T14:38:25.541Z,14.15
2022-11-07T14:40:59.207Z,14.40
2022-11-07T14:43:26.893Z,14.98
2022-11-07T14:46:12.434Z,14.07
2022-11-07T14:48:41.654Z,14.23
2022-11-07T14:51:13.265Z,14.68
2022-11-07T14:53:51.028Z,14.93
2022-11-07T14:56:20.975Z,14.75
2022-11-07T14:58:47.750Z,16.08
2022-11-07T15:01:26.028Z,17.20
2022-11-07T15:04:00.182Z,18.50
2022-11-07T15:06:33.474Z,18.58
2022-11-07T15:09:03.125Z,20.88
2022-11-07T15:11:35.534Z,22.48
2022-11-07T15:14:04.888Z,24.15
2022-11-07T15:16:36.476Z,24.90
2022-11-07T15:19:05.236Z,25.42
2022-11-07T15:21:37.974Z,24.60
2022-11-07T15:24:26.017Z,24.85
2022-11-07T15:27:21.513Z,26.13
2022-11-07T15:29:57.065Z,29.08
2022-11-07T15:32:30.104Z,30.75
2022-11-07T15:35:12.442Z,35.15
2022-11-07T15:38:01.006Z,40.20
2022-11-07T15:40:29.128Z,47.90
2022-11-07T15:42:55.682Z,58.90
2022-11-07T15:45:22.649Z,60.05
2022-11-07T15:47:50.844Z,61.75
2022-11-07T15:50:18.894Z,58.80
2022-11-07T15:52:47.147Z,54.80
2022-11-07T15:55:15.921Z,47.85
2022-11-07T15:57:44.524Z,47.85
2022-11-07T16:00:20.496Z,40.70
2022-11-07T16:02:47.476Z,37.00
2022-11-07T16:05:15.208Z,30.35
2022-11-07T16:07:43.128Z,28.05
2022-11-07T16:10:25.753Z,28.48
2022-11-07T16:12:53.577Z,32.63
2022-11-07T16:15:23.723Z,34.65
2022-11-07T16:17:50.400Z,39.70
2022-11-07T16:20:20.175Z,46.50
2022-11-07T16:22:47.993Z,46.97
2022-11-07T16:25:21.381Z,55.40
2022-11-07T16:27:51.706Z,70.85
2022-11-07T16:30:19.989Z,79.82
2022-11-07T16:32:47.442Z,84.90
2022-11-07T16:35:14.544Z,92.28
2022-11-07T16:37:41.579Z,102.25
2022-11-07T16:40:13.364Z,105.50
2022-11-07T16:42:39.933Z,113.20
2022-11-07T16:45:06.879Z,113.68
2022-11-07T16:47:37.595Z,124.90
2022-11-07T16:50:05.779Z,134.23
2022-11-07T16:52:32.311Z,140.70
2022-11-07T16:54:59.206Z,147.02
2022-11-07T16:57:26.526Z,154.93
2022-11-07T16:59:53.112Z,161.82
2022-11-07T17:02:25.232Z,161.23
2022-11-07T17:04:53.301Z,161.90
2022-11-07T17:07:22.730Z,154.65
2022-11-07T17:09:49.981Z,140.02
2022-11-07T17:12:22.180Z,132.63
2022-11-07T17:14:49.501Z,133.98
2022-11-07T17:17:18.437Z,130.02
2022-11-07T17:19:45.294Z,120.75
2022-11-07T17:22:13.326Z,119.03
2022-11-07T17:24:40.417Z,112.97
2022-11-07T17:27:24.335Z,105.20
2022-11-07T17:29:51.952Z,90.60
2022-11-07T17:32:19.193Z,80.88
2022-11-07T17:34:46.681Z,74.72
2022-11-07T17:37:19.863Z,65.88
2022-11-07T17:39:48.159Z,57.33
2022-11-07T17:42:15.370Z,52.97
2022-11-07T17:44:41.940Z,50.20
2022-11-07T17:47:31.192Z,47.85
2022-11-07T17:49:58.170Z,44.03
2022-11-07T17:52:24.779Z,42.10
2022-11-07T17:54:52.241Z,42.40
2022-11-07T17:57:18.923Z,42.08
2022-11-07T17:59:46.093Z,44.30
2022-11-07T18:02:18.159Z,43.00
2022-11-07T18:04:45.571Z,41.22
2022-11-07T18:07:12.898Z,44.30
2022-11-07T18:09:43.116Z,47.63
2022-11-07T18:12:10.577Z,44.97
2022-11-07T18:14:37.406Z,50.10
2022-11-07T18:17:04.939Z,49.42
2022-11-07T18:19:31.516Z,55.40
2022-11-07T18:21:58.047Z,55.38
2022-11-07T18:24:27.482Z,57.00
2022-11-07T18:26:54.101Z,56.05
2022-11-07T18:29:20.813Z,52.72
2022-11-07T18:31:47.503Z,47.28
2022-11-07T18:34:14.726Z,42.40
2022-11-07T18:36:43.203Z,40.88
2022-11-07T18:39:19.161Z,41.10
2022-11-07T18:41:45.738Z,41.85
2022-11-07T18:44:12.662Z,44.60
2022-11-07T18:46:40.109Z,51.20
2022-11-07T18:49:06.824Z,53.75
2022-11-07T18:51:34.420Z,55.53
2022-11-07T18:54:02.805Z,66.53
2022-11-07T18:56:30.372Z,67.82
2022-11-07T18:58:56.921Z,67.60
2022-11-07T19:01:28.445Z,81.90
2022-11-07T19:03:56.117Z,71.50
2022-11-07T19:06:24.404Z,76.82
2022-11-07T19:08:50.921Z,65.72
2022-11-07T19:11:20.655Z,69.70
2022-11-07T19:13:47.886Z,61.72
2022-11-07T19:16:17.230Z,56.35
2022-11-07T19:18:49.341Z,60.22
2022-11-07T19:21:19.772Z,58.05
2022-11-07T19:23:47.107Z,60.80
2022-11-07T19:26:13.775Z,59.00
2022-11-07T19:28:40.936Z,57.10
2022-11-07T19:31:12.607Z,54.72
2022-11-07T19:33:40.719Z,54.97
2022-11-07T19:36:15.114Z,56.53
2022-11-07T19:38:42.046Z,58.92
2022-11-07T19:41:10.255Z,57.97
2022-11-07T19:43:37.007Z,61.58
2022-11-07T19:46:15.759Z,62.83
2022-11-07T19:48:42.837Z,62.97
2022-11-07T19:51:18.288Z,69.07
2022-11-07T19:53:51.246Z,74.63
2022-11-07T19:56:17.764Z,83.20
2022-11-07T19:58:44.349Z,95.10
2022-11-07T20:01:13.580Z,100.07
2022-11-07T20:03:43.707Z,107.18
2022-11-07T20:06:12.279Z,104.38
2022-11-07T20:08:39.719Z,96.70
2022-11-07T20:11:06.786Z,95.82
2022-11-07T20:13:33.558Z,98.43
2022-11-07T20:16:00.125Z,95.20
2022-11-07T20:18:26.701Z,98.13
2022-11-07T20:21:00.006Z,95.40
2022-11-07T20:23:26.573Z,96.18
2022-11-07T20:25:53.234Z,101.28
2022-11-07T20:28:19.795Z,109.43
2022-11-07T20:30:46.281Z,109.50
2022-11-07T20:33:12.774Z,114.57
2022-11-07T20:35:39.411Z,104.80
2022-11-07T20:38:06.065Z,100.57
2022-11-07T20:40:33.427Z,101.93
2022-11-07T20:43:01.741Z,99.50
2022-11-07T20:45:29.115Z,97.53
2022-11-07T20:47:55.601Z,100.20
2022-11-07T20:50:22.129Z,100.40
2022-11-07T20:52:49.156Z,100.00
2022-11-07T20:55:16.472Z,99.55
2022-11-07T20:57:43.994Z,99.65
2022-11-07T21:00:11.247Z,98.32
2022-11-07T21:02:37.734Z,99.47
2022-11-07T21:05:17.792Z,99.35
2022-11-07T21:07:44.893Z,97.20
2022-11-07T21:10:11.491Z,95.22
2022-11-07T21:12:37.987Z,95.82
2022-11-07T21:15:05.029Z,95.88
2022-11-07T21:17:31.703Z,92.85
2022-11-07T21:19:58.266Z,90.68
2022-11-07T21:22:29.134Z,92.07
2022-11-07T21:24:55.974Z,95.35
2022-11-07T21:27:24.613Z,87.82
2022-11-07T21:29:51.105Z,81.90
2022-11-07T21:32:17.606Z,81.97
2022-11-07T21:34:46.221Z,80.85
2022-11-07T21:37:12.748Z,83.07
2022-11-07T21:39:39.270Z,76.30
2022-11-07T21:42:05.986Z,77.57
2022-11-07T21:44:32.473Z,76.45
2022-11-07T21:46:58.974Z,88.43
2022-11-07T21:49:25.465Z,77.40
2022-11-07T21:51:51.990Z,72.25
2022-11-07T21:54:18.525Z,73.65
2022-11-07T21:56:45.000Z,70.20
2022-11-07T21:59:12.079Z,72.82
2022-11-07T22:01:39.964Z,72.03
2022-11-07T22:04:10.539Z,72.20
2022-11-07T22:06:41.090Z,71.85
2022-11-07T22:09:09.818Z,69.65
2022-11-07T22:11:36.580Z,66.43
2022-11-07T22:14:03.578Z,65.72
2022-11-07T22:16:30.537Z,66.50
2022-11-07T22:18:59.377Z,64.43
2022-11-07T22:21:25.886Z,66.55
2022-11-07T22:23:52.448Z,65.70
2022-11-07T22:26:22.157Z,66.03
2022-11-07T22:28:49.469Z,60.97
2022-11-07T22:31:20.472Z,61.88
2022-11-07T22:33:47.646Z,59.63
2022-11-07T22:36:14.551Z,61.35
2022-11-07T22:38:41.885Z,59.83
2022-11-07T22:41:11.600Z,57.80
2022-11-07T22:43:40.691Z,57.78
2022-11-07T22:46:11.483Z,57.72
2022-11-07T22:48:38.393Z,54.90
2022-11-07T22:51:06.120Z,54.22
2022-11-07T22:53:33.207Z,55.92
2022-11-07T22:56:06.891Z,48.08
2022-11-07T22:58:33.389Z,48.63
2022-11-07T23:00:59.950Z,46.53
2022-11-07T23:03:26.439Z,43.65
2022-11-07T23:05:52.953Z,44.40
2022-11-07T23:08:19.963Z,44.90
2022-11-07T23:11:13.727Z,43.33
2022-11-07T23:13:44.578Z,39.25
2022-11-07T23:16:31.237Z,40.08
2022-11-07T23:19:01.209Z,39.30
2022-11-07T23:21:28.567Z,37.50
2022-11-07T23:23:58.820Z,36.08
2022-11-07T23:26:26.915Z,36.80
2022-11-07T23:28:53.422Z,35.95
2022-11-07T23:31:20.157Z,36.35
2022-11-07T23:33:46.750Z,35.88
2022-11-07T23:36:16.323Z,34.75
2022-11-07T23:38:43.921Z,34.28
2022-11-07T23:41:13.516Z,34.00
2022-11-07T23:43:40.609Z,33.65
2022-11-07T23:46:26.382Z,34.20
2022-11-07T23:49:14.541Z,33.17
2022-11-07T23:51:42.064Z,32.92
2022-11-07T23:54:27.175Z,33.78
2022-11-07T23:59:38.891Z,29.02
